createdAt,value
2018-06-15T00:01:02.510Z,20.61
2018-06-15T00:03:32.540Z,20.56
2018-06-15T00:06:02.376Z,20.53
2018-06-15T00:08:32.327Z,20.39
2018-06-15T00:11:02.426Z,20.25
2018-06-15T00:13:32.457Z,20.04
2018-06-15T00:16:02.464Z,20.00
2018-06-15T00:18:32.386Z,19.86
2018-06-15T00:21:02.539Z,19.87
2018-06-15T00:23:32.821Z,19.86
2018-06-15T00:26:03.203Z,19.84
2018-06-15T00:28:33.521Z,19.81
2018-06-15T00:31:03.439Z,19.92
2018-06-15T00:33:33.756Z,19.82
2018-06-15T00:36:03.959Z,19.86
2018-06-15T00:38:34.577Z,19.85
2018-06-15T00:41:04.745Z,19.78
2018-06-15T00:43:35.073Z,19.78
2018-06-15T00:46:05.304Z,19.76
2018-06-15T00:48:35.866Z,19.78
2018-06-15T00:51:06.111Z,19.70
2018-06-15T00:53:36.102Z,19.71
2018-06-15T00:56:06.804Z,19.73
2018-06-15T00:58:36.736Z,19.75
2018-06-15T01:01:07.340Z,19.62
2018-06-15T01:03:37.449Z,19.53
2018-06-15T01:06:07.842Z,19.53
2018-06-15T01:08:37.852Z,19.49
2018-06-15T01:11:08.047Z,19.54
2018-06-15T01:13:38.451Z,19.50
2018-06-15T01:16:08.830Z,19.61
2018-06-15T01:18:38.816Z,19.48
2018-06-15T01:21:08.863Z,19.45
2018-06-15T01:23:38.875Z,19.45
2018-06-15T01:26:09.313Z,19.39
2018-06-15T01:28:39.259Z,19.38
2018-06-15T01:31:09.576Z,19.37
2018-06-15T01:33:39.493Z,19.34
2018-06-15T01:36:09.623Z,19.26
2018-06-15T01:38:40.116Z,19.17
2018-06-15T01:41:10.382Z,19.13
2018-06-15T01:43:40.653Z,19.11
2018-06-15T01:46:10.816Z,19.09
2018-06-15T01:48:41.227Z,19.14
2018-06-15T01:51:11.469Z,19.01
2018-06-15T01:53:42.032Z,18.91
2018-06-15T01:56:12.269Z,18.90
2018-06-15T01:58:42.577Z,18.86
2018-06-15T02:01:12.651Z,18.80
2018-06-15T02:03:42.656Z,18.64
2018-06-15T02:06:13.041Z,18.77
2018-06-15T02:08:43.684Z,18.75
2018-06-15T02:11:13.659Z,18.68
2018-06-15T02:13:43.952Z,18.60
2018-06-15T02:16:14.188Z,18.58
2018-06-15T02:18:44.373Z,18.57
2018-06-15T02:21:14.424Z,18.55
2018-06-15T02:23:44.373Z,18.56
2018-06-15T02:26:14.323Z,18.55
2018-06-15T02:28:44.233Z,18.53
2018-06-15T02:31:14.152Z,18.53
2018-06-15T02:33:44.068Z,18.59
2018-06-15T02:36:14.226Z,18.67
2018-06-15T02:38:44.220Z,18.70
2018-06-15T02:41:14.491Z,18.71
2018-06-15T02:43:44.745Z,18.79
2018-06-15T02:46:14.605Z,18.82
2018-06-15T02:48:44.912Z,18.85
2018-06-15T02:51:14.903Z,19.00
2018-06-15T02:53:45.124Z,18.99
2018-06-15T02:56:15.044Z,19.06
2018-06-15T02:58:45.327Z,19.09
2018-06-15T03:01:15.597Z,19.14
2018-06-15T03:03:46.156Z,19.17
2018-06-15T03:06:16.347Z,19.33
2018-06-15T03:08:46.619Z,19.24
2018-06-15T03:11:17.045Z,19.25
2018-06-15T03:13:46.975Z,19.28
2018-06-15T03:16:17.201Z,19.22
2018-06-15T03:18:47.407Z,19.19
2018-06-15T03:21:17.380Z,19.23
2018-06-15T03:23:47.803Z,19.22
2018-06-15T03:26:17.793Z,19.43
2018-06-15T03:28:47.696Z,19.26
2018-06-15T03:31:17.644Z,19.26
2018-06-15T03:33:48.476Z,19.54
2018-06-15T03:36:18.691Z,19.52
2018-06-15T03:38:48.830Z,19.68
2018-06-15T03:41:19.346Z,19.91
2018-06-15T03:43:49.596Z,19.93
2018-06-15T03:46:19.989Z,20.07
2018-06-15T03:48:49.858Z,20.21
2018-06-15T03:51:19.835Z,20.93
2018-06-15T03:53:49.800Z,20.87
2018-06-15T03:56:20.172Z,20.76
2018-06-15T03:58:50.126Z,20.65
2018-06-15T04:01:20.468Z,20.50
2018-06-15T04:03:50.959Z,20.73
2018-06-15T04:06:21.168Z,20.70
2018-06-15T04:08:51.508Z,20.81
2018-06-15T04:11:22.348Z,20.93
2018-06-15T04:13:52.533Z,20.69
2018-06-15T04:16:22.932Z,21.02
2018-06-15T04:18:53.870Z,21.04
2018-06-15T04:21:24.079Z,20.95
2018-06-15T04:23:54.553Z,20.94
2018-06-15T04:26:24.759Z,20.85
2018-06-15T04:28:54.657Z,20.95
2018-06-15T04:31:24.928Z,20.92
2018-06-15T04:33:55.356Z,21.04
2018-06-15T04:36:25.277Z,21.25
2018-06-15T04:38:55.468Z,20.99
2018-06-15T04:41:25.621Z,21.29
2018-06-15T04:43:55.936Z,21.34
2018-06-15T04:46:26.248Z,21.60
2018-06-15T04:48:56.419Z,21.54
2018-06-15T04:51:26.617Z,21.97
2018-06-15T04:53:56.615Z,21.58
2018-06-15T04:56:26.777Z,21.62
2018-06-15T04:58:57.324Z,21.71
2018-06-15T05:01:27.533Z,21.91
2018-06-15T05:03:57.664Z,21.88
2018-06-15T05:06:27.792Z,22.28
2018-06-15T05:08:58.020Z,22.27
2018-06-15T05:11:28.018Z,22.16
2018-06-15T05:13:57.957Z,22.32
2018-06-15T05:16:28.066Z,22.17
2018-06-15T05:18:58.177Z,22.16
2018-06-15T05:21:28.103Z,22.20
2018-06-15T05:23:58.104Z,22.06
2018-06-15T05:26:28.055Z,22.08
2018-06-15T05:28:58.341Z,21.98
2018-06-15T05:31:28.660Z,22.18
2018-06-15T05:33:58.685Z,22.59
2018-06-15T05:36:28.954Z,22.53
2018-06-15T05:38:59.161Z,22.88
2018-06-15T05:41:29.119Z,22.82
2018-06-15T05:43:59.444Z,22.71
2018-06-15T05:46:29.823Z,22.73
2018-06-15T05:48:59.848Z,23.21
2018-06-15T05:51:29.791Z,23.30
2018-06-15T05:53:59.928Z,23.49
2018-06-15T05:56:29.810Z,23.37
2018-06-15T05:58:59.739Z,23.64
2018-06-15T06:01:29.669Z,24.36
2018-06-15T06:04:00.186Z,25.11
2018-06-15T06:06:30.086Z,26.54
2018-06-15T06:09:00.508Z,26.23
2018-06-15T06:11:30.429Z,26.20
2018-06-15T06:14:00.488Z,25.75
2018-06-15T06:16:30.363Z,25.87
2018-06-15T06:19:00.804Z,26.11
2018-06-15T06:21:30.687Z,25.03
2018-06-15T06:24:01.140Z,25.27
2018-06-15T06:26:31.061Z,25.87
2018-06-15T06:29:01.075Z,25.65
2018-06-15T06:31:31.641Z,26.34
2018-06-15T06:34:01.632Z,27.28
2018-06-15T06:36:31.960Z,26.72
2018-06-15T06:39:02.446Z,25.99
2018-06-15T06:41:32.669Z,26.46
2018-06-15T06:44:02.588Z,26.41
2018-06-15T06:46:32.792Z,26.19
2018-06-15T06:49:03.386Z,26.42
2018-06-15T06:51:33.481Z,26.29
2018-06-15T06:54:03.567Z,26.59
2018-06-15T06:56:33.871Z,26.28
2018-06-15T06:59:04.136Z,25.85
2018-06-15T07:01:34.558Z,25.56
2018-06-15T07:04:04.664Z,24.92
2018-06-15T07:06:34.966Z,25.21
2018-06-15T07:09:07.031Z,26.19
2018-06-15T07:11:37.460Z,26.25
2018-06-15T07:14:07.661Z,26.23
2018-06-15T07:16:37.689Z,26.26
2018-06-15T07:19:07.748Z,25.67
2018-06-15T07:21:37.928Z,26.03
2018-06-15T07:24:07.979Z,26.60
2018-06-15T07:26:38.427Z,26.69
2018-06-15T07:29:08.764Z,25.88
2018-06-15T07:31:38.684Z,26.20
2018-06-15T07:34:09.711Z,26.87
2018-06-15T07:36:39.853Z,26.73
2018-06-15T07:39:11.236Z,25.78
2018-06-15T07:41:41.514Z,26.18
2018-06-15T07:44:11.698Z,26.03
2018-06-15T07:46:42.135Z,25.91
2018-06-15T07:49:12.053Z,26.09
2018-06-15T07:51:42.220Z,26.13
2018-06-15T07:54:12.576Z,26.37
2018-06-15T07:56:42.964Z,26.22
2018-06-15T07:59:13.184Z,26.76
2018-06-15T08:01:43.196Z,26.67
2018-06-15T08:04:13.488Z,26.44
2018-06-15T08:06:43.742Z,26.38
2018-06-15T08:09:14.144Z,25.10
2018-06-15T08:11:44.497Z,25.89
2018-06-15T08:14:14.556Z,26.23
2018-06-15T08:16:44.611Z,26.40
2018-06-15T08:19:14.588Z,26.92
2018-06-15T08:21:45.169Z,26.88
2018-06-15T08:24:15.156Z,26.27
2018-06-15T08:26:45.168Z,25.69
2018-06-15T08:29:15.075Z,25.72
2018-06-15T08:31:45.304Z,26.20
2018-06-15T08:34:15.860Z,26.43
2018-06-15T08:36:45.855Z,26.24
2018-06-15T08:39:16.761Z,26.66
2018-06-15T08:41:46.711Z,26.53
2018-06-15T08:44:16.891Z,26.27
2018-06-15T08:46:47.118Z,26.40
2018-06-15T08:49:18.108Z,27.05
2018-06-15T08:51:48.379Z,26.83
2018-06-15T08:54:19.621Z,26.27
2018-06-15T08:56:50.083Z,26.56
2018-06-15T08:59:20.300Z,27.02
2018-06-15T09:01:50.306Z,27.28
2018-06-15T09:04:20.693Z,26.97
2018-06-15T09:06:51.226Z,26.49
2018-06-15T09:09:21.331Z,26.98
2018-06-15T09:11:51.923Z,27.00
2018-06-15T09:14:22.216Z,27.21
2018-06-15T09:16:52.805Z,27.15
2018-06-15T09:19:22.947Z,27.73
2018-06-15T09:21:53.120Z,27.40
2018-06-15T09:24:23.453Z,27.89
2018-06-15T09:26:54.096Z,27.43
2018-06-15T09:29:23.971Z,27.26
2018-06-15T09:31:53.975Z,27.78
2018-06-15T09:34:24.133Z,27.08
2018-06-15T09:36:54.732Z,27.68
2018-06-15T09:39:25.101Z,28.01
2018-06-15T09:41:54.972Z,28.33
2018-06-15T09:44:24.872Z,27.80
2018-06-15T09:46:55.060Z,27.79
2018-06-15T09:49:25.353Z,27.56
2018-06-15T09:51:55.653Z,27.51
2018-06-15T09:54:25.890Z,27.87
2018-06-15T09:56:56.533Z,27.38
2018-06-15T09:59:26.589Z,27.23
2018-06-15T10:01:56.896Z,27.84
2018-06-15T10:04:26.880Z,27.97
2018-06-15T10:06:56.914Z,28.14
2018-06-15T10:09:26.857Z,27.88
2018-06-15T10:11:57.225Z,27.26
2018-06-15T10:14:27.612Z,27.64
2018-06-15T10:16:57.585Z,27.87
2018-06-15T10:19:27.789Z,27.71
2018-06-15T10:21:57.879Z,27.45
2018-06-15T10:24:28.213Z,28.00
2018-06-15T10:26:58.464Z,27.69
2018-06-15T10:29:28.472Z,27.75
2018-06-15T10:31:58.511Z,27.83
2018-06-15T10:34:28.460Z,28.07
2018-06-15T10:36:58.725Z,27.87
2018-06-15T10:39:28.798Z,27.39
2018-06-15T10:41:59.109Z,28.29
2018-06-15T10:44:29.120Z,28.02
2018-06-15T10:46:59.101Z,27.99
2018-06-15T10:49:29.386Z,27.79
2018-06-15T10:51:59.644Z,27.52
2018-06-15T10:54:29.966Z,27.20
2018-06-15T10:57:00.698Z,27.28
2018-06-15T10:59:30.904Z,27.21
2018-06-15T11:02:01.369Z,27.43
2018-06-15T11:04:31.549Z,27.35
2018-06-15T11:07:02.070Z,27.27
2018-06-15T11:09:32.381Z,27.29
2018-06-15T11:12:02.782Z,27.88
2018-06-15T11:14:32.999Z,27.83
2018-06-15T11:17:03.068Z,27.77
2018-06-15T11:19:33.102Z,28.31
2018-06-15T11:22:03.212Z,28.47
2018-06-15T11:24:33.545Z,28.35
2018-06-15T11:27:03.675Z,28.05
2018-06-15T11:29:33.826Z,27.59
2018-06-15T11:32:04.676Z,28.01
2018-06-15T11:34:34.716Z,28.06
2018-06-15T11:37:05.162Z,28.00
2018-06-15T11:39:35.586Z,27.65
2018-06-15T11:42:05.918Z,27.70
2018-06-15T11:44:35.825Z,27.32
2018-06-15T11:47:05.933Z,26.92
2018-06-15T11:49:36.040Z,27.13
2018-06-15T11:52:06.399Z,26.77
2018-06-15T11:54:36.875Z,27.09
2018-06-15T11:57:06.817Z,26.76
2018-06-15T11:59:36.710Z,27.34
2018-06-15T12:02:07.249Z,27.63
2018-06-15T12:04:37.429Z,27.06
2018-06-15T12:07:07.590Z,26.87
2018-06-15T12:09:37.641Z,27.51
2018-06-15T12:12:07.675Z,26.92
2018-06-15T12:14:38.264Z,27.00
2018-06-15T12:17:08.477Z,26.63
2018-06-15T12:19:38.681Z,26.86
2018-06-15T12:22:08.650Z,26.50
2018-06-15T12:24:39.216Z,26.56
2018-06-15T12:27:09.820Z,26.38
2018-06-15T12:29:39.768Z,26.76
2018-06-15T12:32:10.009Z,26.43
2018-06-15T12:34:40.169Z,26.29
2018-06-15T12:37:11.068Z,26.07
2018-06-15T12:39:41.363Z,26.00
2018-06-15T12:42:11.727Z,25.72
2018-06-15T12:44:41.912Z,25.74
2018-06-15T12:47:12.311Z,25.42
2018-06-15T12:49:42.477Z,25.36
2018-06-15T12:52:13.084Z,25.53
2018-06-15T12:54:43.276Z,25.22
2018-06-15T12:57:13.581Z,25.60
2018-06-15T12:59:44.209Z,25.44
2018-06-15T13:02:14.490Z,25.06
2018-06-15T13:04:44.910Z,25.03
2018-06-15T13:07:15.139Z,25.42
2018-06-15T13:09:45.729Z,25.62
2018-06-15T13:12:16.321Z,25.83
2018-06-15T13:14:46.227Z,25.59
2018-06-15T13:17:16.330Z,25.58
2018-06-15T13:19:46.368Z,25.49
2018-06-15T13:22:16.933Z,25.43
2018-06-15T13:24:47.229Z,25.01
2018-06-15T13:27:17.988Z,25.00
2018-06-15T13:29:48.154Z,25.24
2018-06-15T13:32:18.560Z,25.18
2018-06-15T13:34:48.827Z,25.21
2018-06-15T13:37:19.044Z,24.83
2018-06-15T13:39:49.277Z,24.64
2018-06-15T13:42:19.253Z,24.51
2018-06-15T13:44:49.252Z,24.63
2018-06-15T13:47:19.305Z,24.73
2018-06-15T13:49:49.523Z,25.24
2018-06-15T13:52:19.689Z,24.89
2018-06-15T13:54:50.138Z,24.67
2018-06-15T13:57:20.225Z,24.61
2018-06-15T13:59:50.275Z,24.44
2018-06-15T14:02:20.704Z,25.22
2018-06-15T14:04:50.559Z,25.43
2018-06-15T14:07:20.852Z,25.48
2018-06-15T14:09:50.781Z,25.46
2018-06-15T14:12:20.867Z,25.26
2018-06-15T14:14:51.061Z,24.83
2018-06-15T14:17:21.652Z,25.10
2018-06-15T14:19:51.548Z,25.42
2018-06-15T14:22:21.748Z,25.31
2018-06-15T14:24:51.936Z,25.26
2018-06-15T14:27:22.349Z,25.17
2018-06-15T14:29:52.356Z,25.01
2018-06-15T14:32:22.335Z,24.83
2018-06-15T14:34:52.291Z,24.34
2018-06-15T14:37:22.763Z,24.32
2018-06-15T14:39:53.236Z,24.28
2018-06-15T14:42:23.806Z,24.69
2018-06-15T14:44:54.153Z,24.53
2018-06-15T14:47:24.480Z,24.98
2018-06-15T14:49:54.731Z,24.43
2018-06-15T14:52:24.817Z,24.39
2018-06-15T14:54:55.453Z,24.30
2018-06-15T14:57:25.681Z,24.36
2018-06-15T14:59:55.793Z,24.50
2018-06-15T15:02:26.056Z,24.58
2018-06-15T15:04:56.425Z,24.36
2018-06-15T15:07:26.660Z,24.47
2018-06-15T15:09:57.540Z,24.06
2018-06-15T15:12:27.734Z,24.19
2018-06-15T15:14:58.287Z,24.06
2018-06-15T15:17:28.612Z,23.99
2018-06-15T15:19:58.664Z,24.02
2018-06-15T15:22:28.981Z,24.06
2018-06-15T15:24:59.177Z,24.00
2018-06-15T15:27:30.001Z,24.02
2018-06-15T15:30:00.254Z,24.44
2018-06-15T15:32:30.408Z,23.75
2018-06-15T15:35:00.670Z,24.18
2018-06-15T15:37:30.897Z,24.66
2018-06-15T15:40:00.966Z,24.40
2018-06-15T15:42:31.029Z,24.48
2018-06-15T15:45:01.375Z,23.61
2018-06-15T15:47:31.393Z,23.62
2018-06-15T15:50:01.367Z,24.00
2018-06-15T15:52:31.429Z,23.28
2018-06-15T15:55:01.489Z,23.18
2018-06-15T15:57:31.673Z,23.09
2018-06-15T16:00:01.916Z,23.17
2018-06-15T16:02:32.077Z,23.13
2018-06-15T16:05:02.513Z,23.11
2018-06-15T16:07:32.869Z,23.10
2018-06-15T16:10:03.393Z,22.98
2018-06-15T16:12:33.485Z,23.03
2018-06-15T16:15:03.417Z,23.08
2018-06-15T16:17:33.463Z,23.28
2018-06-15T16:20:03.453Z,23.12
2018-06-15T16:22:33.627Z,23.15
2018-06-15T16:25:03.716Z,23.30
2018-06-15T16:27:34.157Z,23.43
2018-06-15T16:30:04.266Z,23.50
2018-06-15T16:32:34.396Z,23.54
2018-06-15T16:35:04.674Z,23.58
2018-06-15T16:37:35.382Z,23.90
2018-06-15T16:40:05.526Z,23.97
2018-06-15T16:42:35.568Z,23.83
2018-06-15T16:45:06.022Z,23.56
2018-06-15T16:47:36.132Z,23.39
2018-06-15T16:50:06.333Z,23.31
2018-06-15T16:52:36.834Z,23.31
2018-06-15T16:55:07.088Z,23.25
2018-06-15T16:57:37.245Z,23.25
2018-06-15T17:00:07.348Z,23.17
2018-06-15T17:02:37.845Z,23.21
2018-06-15T17:05:07.841Z,23.53
2018-06-15T17:07:37.816Z,23.67
2018-06-15T17:10:08.124Z,23.42
2018-06-15T17:12:38.169Z,23.50
2018-06-15T17:15:08.202Z,23.44
2018-06-15T17:17:38.334Z,23.19
2018-06-15T17:20:08.686Z,23.11
2018-06-15T17:22:38.752Z,23.15
2018-06-15T17:25:08.752Z,23.21
2018-06-15T17:27:38.755Z,23.20
2018-06-15T17:30:09.233Z,23.13
2018-06-15T17:32:40.044Z,23.07
2018-06-15T17:35:10.327Z,22.92
2018-06-15T17:37:40.636Z,22.90
2018-06-15T17:40:10.591Z,22.99
2018-06-15T17:42:40.615Z,23.11
2018-06-15T17:45:10.741Z,23.08
2018-06-15T17:47:40.671Z,22.97
2018-06-15T17:50:10.762Z,22.84
2018-06-15T17:52:40.629Z,22.70
2018-06-15T17:55:10.665Z,22.62
2018-06-15T17:57:40.941Z,22.49
2018-06-15T18:00:11.082Z,22.45
2018-06-15T18:02:41.073Z,22.43
2018-06-15T18:05:11.148Z,22.42
2018-06-15T18:07:41.098Z,22.39
2018-06-15T18:10:10.977Z,22.35
2018-06-15T18:12:40.964Z,22.70
2018-06-15T18:15:10.921Z,22.42
2018-06-15T18:17:40.942Z,22.83
2018-06-15T18:20:11.009Z,22.53
2018-06-15T18:22:41.037Z,22.32
2018-06-15T18:25:11.067Z,22.23
2018-06-15T18:27:41.050Z,22.39
2018-06-15T18:30:10.993Z,22.51
2018-06-15T18:32:41.120Z,22.32
2018-06-15T18:35:11.094Z,22.24
2018-06-15T18:37:41.301Z,22.37
2018-06-15T18:40:11.429Z,22.31
2018-06-15T18:42:41.398Z,22.34
2018-06-15T18:47:40.784Z,22.26
2018-06-15T18:50:10.832Z,22.26
2018-06-15T18:52:41.163Z,22.20
2018-06-15T18:55:11.357Z,22.18
2018-06-15T18:57:41.303Z,22.40
2018-06-15T19:00:11.372Z,22.44
2018-06-15T19:02:41.404Z,22.59
2018-06-15T19:05:11.537Z,22.73
2018-06-15T19:07:41.599Z,22.73
2018-06-15T19:10:11.749Z,22.49
2018-06-15T19:12:41.927Z,22.59
2018-06-15T19:15:12.055Z,22.52
2018-06-15T19:17:41.982Z,22.40
2018-06-15T19:20:13.291Z,22.41
2018-06-15T19:22:43.219Z,22.42
2018-06-15T19:25:13.323Z,22.40
2018-06-15T19:27:43.180Z,22.41
2018-06-15T19:30:13.177Z,22.57
2018-06-15T19:32:43.119Z,22.55
2018-06-15T19:35:13.576Z,22.36
2018-06-15T19:40:06.901Z,22.69
2018-06-15T19:42:36.980Z,22.28
2018-06-15T19:45:06.939Z,22.28
2018-06-15T19:47:36.999Z,22.33
2018-06-15T19:50:07.192Z,22.23
2018-06-15T19:52:37.266Z,22.13
2018-06-15T19:55:07.231Z,22.08
2018-06-15T19:57:37.261Z,22.09
2018-06-15T20:00:07.517Z,22.24
2018-06-15T20:02:38.014Z,22.27
2018-06-15T20:05:09.084Z,22.37
2018-06-15T20:07:38.989Z,22.41
2018-06-15T20:10:08.989Z,22.46
2018-06-15T20:12:39.022Z,22.52
2018-06-15T20:15:09.075Z,22.52
2018-06-15T20:17:39.196Z,22.52
2018-06-15T20:20:09.176Z,22.46
2018-06-15T20:22:39.252Z,22.79
2018-06-15T20:25:09.219Z,22.83
2018-06-15T20:28:55.983Z,22.69
2018-06-15T20:31:25.936Z,22.60
2018-06-15T20:33:56.043Z,22.76
2018-06-15T20:36:26.365Z,22.64
2018-06-15T20:38:56.613Z,22.54
2018-06-15T20:41:26.664Z,22.47
2018-06-15T20:43:56.677Z,22.39
2018-06-15T20:46:26.730Z,22.32
2018-06-15T20:48:56.636Z,22.21
2018-06-15T20:51:26.661Z,22.17
2018-06-15T20:53:56.663Z,22.12
2018-06-15T20:56:26.901Z,22.29
2018-06-15T20:58:57.397Z,22.32
2018-06-15T21:01:27.553Z,22.53
2018-06-15T21:03:57.599Z,22.33
2018-06-15T21:06:30.717Z,22.17
2018-06-15T21:09:33.277Z,22.32
2018-06-15T21:12:03.504Z,22.25
2018-06-15T21:14:33.615Z,22.25
2018-06-15T21:17:03.469Z,22.32
2018-06-15T21:19:33.505Z,22.32
2018-06-15T21:22:03.708Z,22.33
2018-06-15T21:24:33.660Z,22.36
2018-06-15T21:27:03.763Z,22.53
2018-06-15T21:29:33.668Z,22.54
2018-06-15T21:32:03.736Z,22.27
2018-06-15T21:34:33.631Z,22.47
2018-06-15T21:37:03.810Z,22.08
2018-06-15T21:39:34.028Z,22.27
2018-06-15T21:42:04.141Z,22.04
2018-06-15T21:44:34.008Z,21.84
2018-06-15T21:47:04.125Z,21.67
2018-06-15T21:49:34.046Z,21.74
2018-06-15T21:52:04.409Z,21.86
2018-06-15T21:54:35.023Z,22.22
2018-06-15T21:57:05.250Z,21.77
2018-06-15T21:59:35.360Z,21.77
2018-06-15T22:02:05.291Z,21.52
2018-06-15T22:04:35.417Z,21.47
2018-06-15T22:07:05.390Z,21.44
2018-06-15T22:09:35.457Z,21.39
2018-06-15T22:12:05.352Z,21.38
2018-06-15T22:14:35.464Z,21.44
2018-06-15T22:17:05.491Z,21.60
2018-06-15T22:19:35.830Z,21.74
2018-06-15T22:22:06.300Z,21.81
2018-06-15T22:24:37.141Z,22.07
2018-06-15T22:27:07.169Z,22.20
2018-06-15T22:29:37.205Z,22.03
2018-06-15T22:32:08.678Z,21.84
2018-06-15T22:34:38.658Z,21.66
2018-06-15T22:37:08.991Z,21.52
2018-06-15T22:39:38.960Z,21.54
2018-06-15T22:42:08.868Z,21.40
2018-06-15T22:44:38.799Z,21.72
2018-06-15T22:47:08.785Z,21.88
2018-06-15T22:49:39.087Z,21.80
2018-06-15T22:52:09.465Z,21.76
2018-06-15T22:54:39.912Z,21.82
2018-06-15T22:57:09.835Z,21.45
2018-06-15T22:59:39.790Z,21.35
2018-06-15T23:02:09.888Z,21.24
2018-06-15T23:04:39.985Z,21.32
2018-06-15T23:07:10.054Z,21.19
2018-06-15T23:09:40.123Z,21.10
2018-06-15T23:12:10.054Z,21.05
2018-06-15T23:14:39.943Z,21.08
2018-06-15T23:17:09.944Z,20.96
2018-06-15T23:19:40.488Z,20.90
2018-06-15T23:22:10.864Z,20.86
2018-06-15T23:24:40.704Z,20.79
2018-06-15T23:27:10.708Z,20.80
2018-06-15T23:29:40.751Z,20.79
2018-06-15T23:32:10.772Z,20.74
2018-06-15T23:34:40.653Z,20.64
2018-06-15T23:37:10.733Z,20.58
2018-06-15T23:39:40.888Z,20.54
2018-06-15T23:42:11.157Z,20.63
2018-06-15T23:44:41.326Z,20.60
2018-06-15T23:47:11.589Z,20.60
2018-06-15T23:49:41.781Z,20.58
2018-06-15T23:52:11.777Z,20.63
2018-06-15T23:54:41.761Z,20.76
2018-06-15T23:57:12.116Z,20.58
2018-06-15T23:59:42.153Z,20.48
